createdAt,value
2018-12-07T00:00:44.313Z,26.10
2018-12-07T00:01:44.280Z,24.10
2018-12-07T00:02:44.270Z,24.70
2018-12-07T00:03:44.329Z,24.20
2018-12-07T00:04:44.269Z,23.60
2018-12-07T00:05:44.371Z,22.70
2018-12-07T00:06:44.338Z,26.10
2018-12-07T00:07:44.219Z,23.50
2018-12-07T00:08:44.180Z,23.50
2018-12-07T00:09:44.179Z,22.40
2018-12-07T00:10:44.169Z,22.10
2018-12-07T00:11:44.322Z,24.10
2018-12-07T00:12:44.318Z,25.30
2018-12-07T00:13:44.136Z,22.90
2018-12-07T00:14:44.183Z,23.20
2018-12-07T00:15:44.123Z,24.40
2018-12-07T00:16:44.093Z,23.60
2018-12-07T00:17:44.092Z,27.30
2018-12-07T00:18:44.096Z,20.50
2018-12-07T00:19:47.935Z,23.90
2018-12-07T00:20:44.052Z,23.60
2018-12-07T00:21:44.050Z,22.30
2018-12-07T00:22:44.026Z,21.60
2018-12-07T00:23:44.052Z,23.00
2018-12-07T00:24:44.088Z,26.30
2018-12-07T00:25:44.002Z,24.00
2018-12-07T00:26:43.995Z,23.50
2018-12-07T00:27:44.000Z,24.80
2018-12-07T00:28:43.999Z,24.10
2018-12-07T00:29:43.974Z,21.70
2018-12-07T00:30:43.942Z,23.80
2018-12-07T00:31:43.949Z,22.20
2018-12-07T00:32:43.928Z,23.60
2018-12-07T00:33:43.938Z,22.40
2018-12-07T00:34:43.905Z,22.60
2018-12-07T00:35:43.881Z,22.80
2018-12-07T00:36:43.875Z,23.30
2018-12-07T00:37:43.871Z,23.60
2018-12-07T00:38:43.859Z,22.70
2018-12-07T00:39:43.840Z,21.30
2018-12-07T00:40:43.834Z,23.30
2018-12-07T00:41:43.813Z,25.90
2018-12-07T00:42:43.805Z,25.70
2018-12-07T00:43:43.825Z,24.90
2018-12-07T00:44:43.797Z,22.50
2018-12-07T00:45:43.777Z,26.20
2018-12-07T00:46:43.775Z,21.50
2018-12-07T00:47:43.770Z,21.60
2018-12-07T00:48:43.763Z,24.20
2018-12-07T00:49:43.751Z,21.50
2018-12-07T00:50:43.720Z,22.50
2018-12-07T00:51:43.714Z,21.10
2018-12-07T00:52:43.698Z,21.50
2018-12-07T00:53:43.703Z,23.30
2018-12-07T00:54:43.674Z,24.20
2018-12-07T00:55:43.662Z,20.40
2018-12-07T00:56:43.661Z,21.10
2018-12-07T00:57:43.635Z,23.20
2018-12-07T00:58:43.664Z,20.30
2018-12-07T00:59:43.619Z,19.60
2018-12-07T01:00:43.609Z,21.80
2018-12-07T01:01:43.600Z,18.80
2018-12-07T01:02:43.593Z,19.30
2018-12-07T01:03:43.578Z,19.50
2018-12-07T01:04:43.585Z,22.50
2018-12-07T01:05:43.593Z,23.60
2018-12-07T01:06:43.634Z,21.20
2018-12-07T01:07:43.533Z,21.20
2018-12-07T01:08:43.527Z,20.50
2018-12-07T01:09:43.546Z,24.30
2018-12-07T01:10:43.500Z,20.70
2018-12-07T01:11:43.486Z,20.80
2018-12-07T01:12:43.488Z,22.50
2018-12-07T01:13:43.506Z,19.10
2018-12-07T01:14:43.478Z,19.40
2018-12-07T01:15:43.449Z,18.00
2018-12-07T01:16:43.426Z,19.70
2018-12-07T01:17:43.435Z,21.60
2018-12-07T01:18:43.403Z,18.60
2018-12-07T01:19:43.432Z,18.80
2018-12-07T01:20:43.401Z,19.20
2018-12-07T01:21:43.386Z,18.90
2018-12-07T01:22:43.386Z,19.70
2018-12-07T01:23:43.360Z,19.40
2018-12-07T01:24:43.390Z,19.40
2018-12-07T01:25:43.339Z,21.20
2018-12-07T01:26:43.360Z,18.60
2018-12-07T01:27:43.311Z,20.00
2018-12-07T01:28:43.299Z,17.10
2018-12-07T01:29:43.304Z,19.30
2018-12-07T01:30:43.281Z,18.40
2018-12-07T01:31:43.274Z,19.40
2018-12-07T01:32:43.252Z,21.20
2018-12-07T01:33:43.250Z,17.90
2018-12-07T01:34:43.241Z,18.40
2018-12-07T01:35:43.327Z,18.00
2018-12-07T01:36:43.220Z,18.10
2018-12-07T01:37:43.194Z,19.50
2018-12-07T01:38:43.188Z,19.80
2018-12-07T01:39:43.201Z,17.90
2018-12-07T01:40:43.169Z,17.00
2018-12-07T01:41:43.158Z,19.00
2018-12-07T01:42:43.139Z,17.40
2018-12-07T01:43:43.131Z,17.50
2018-12-07T01:44:43.131Z,20.10
2018-12-07T01:45:43.109Z,18.20
2018-12-07T01:46:43.090Z,17.60
2018-12-07T01:47:43.087Z,17.30
2018-12-07T01:48:43.075Z,17.70
2018-12-07T01:49:43.116Z,19.50
2018-12-07T01:50:43.046Z,20.30
2018-12-07T01:51:43.055Z,18.80
2018-12-07T01:52:43.027Z,18.40
2018-12-07T01:53:43.008Z,17.80
2018-12-07T01:54:43.008Z,18.40
2018-12-07T01:55:43.025Z,18.70
2018-12-07T01:56:42.998Z,17.30
2018-12-07T01:57:43.001Z,22.50
2018-12-07T01:58:43.018Z,17.40
2018-12-07T01:59:42.948Z,16.40
2018-12-07T02:00:42.958Z,17.40
2018-12-07T02:01:42.933Z,17.80
2018-12-07T02:02:42.926Z,17.40
2018-12-07T02:03:42.920Z,16.20
2018-12-07T02:04:42.903Z,18.40
2018-12-07T02:05:42.907Z,17.70
2018-12-07T02:06:42.890Z,15.80
2018-12-07T02:07:42.861Z,16.00
2018-12-07T02:08:42.870Z,19.30
2018-12-07T02:09:42.842Z,17.30
2018-12-07T02:10:42.938Z,16.70
2018-12-07T02:11:42.828Z,18.40
2018-12-07T02:12:42.806Z,18.50
2018-12-07T02:13:42.802Z,18.50
2018-12-07T02:14:42.787Z,17.90
2018-12-07T02:15:42.786Z,17.60
2018-12-07T02:16:42.756Z,18.20
2018-12-07T02:17:42.757Z,18.90
2018-12-07T02:18:42.745Z,17.30
2018-12-07T02:19:42.735Z,17.00
2018-12-07T02:20:42.742Z,16.50
2018-12-07T02:21:42.716Z,16.90
2018-12-07T02:22:42.689Z,17.00
2018-12-07T02:23:42.688Z,17.10
2018-12-07T02:24:42.684Z,18.30
2018-12-07T02:25:42.679Z,18.30
2018-12-07T02:26:42.650Z,16.80
2018-12-07T02:27:42.649Z,15.70
2018-12-07T02:28:42.629Z,17.20
2018-12-07T02:29:42.627Z,15.90
2018-12-07T02:30:42.632Z,17.80
2018-12-07T02:31:42.597Z,15.70
2018-12-07T02:32:42.586Z,17.30
2018-12-07T02:33:42.579Z,17.00
2018-12-07T02:34:42.559Z,14.60
2018-12-07T02:35:42.575Z,15.20
2018-12-07T02:36:42.548Z,18.20
2018-12-07T02:37:42.535Z,16.50
2018-12-07T02:38:42.526Z,16.50
2018-12-07T02:39:42.533Z,16.30
2018-12-07T02:40:42.525Z,17.60
2018-12-07T02:41:42.475Z,16.90
2018-12-07T02:42:42.482Z,18.70
2018-12-07T02:43:42.477Z,18.60
2018-12-07T02:44:42.451Z,16.70
2018-12-07T02:45:42.452Z,18.00
2018-12-07T02:46:42.518Z,17.60
2018-12-07T02:47:42.418Z,17.30
2018-12-07T02:48:42.420Z,19.10
2018-12-07T02:49:42.395Z,18.00
2018-12-07T02:50:42.389Z,16.80
2018-12-07T02:51:42.389Z,21.00
2018-12-07T02:52:42.365Z,20.10
2018-12-07T02:53:42.351Z,18.90
2018-12-07T02:54:42.348Z,20.30
2018-12-07T02:55:42.343Z,20.00
2018-12-07T02:56:42.313Z,20.20
2018-12-07T02:57:42.307Z,20.70
2018-12-07T02:58:42.301Z,19.30
2018-12-07T02:59:42.279Z,17.40
2018-12-07T03:00:42.297Z,19.50
2018-12-07T03:01:42.268Z,19.70
2018-12-07T03:02:42.244Z,21.70
2018-12-07T03:03:42.241Z,18.40
2018-12-07T03:04:42.233Z,18.10
2018-12-07T03:05:42.254Z,20.30
2018-12-07T03:06:42.208Z,19.10
2018-12-07T03:07:42.203Z,21.60
2018-12-07T03:08:42.182Z,19.90
2018-12-07T03:09:42.166Z,19.10
2018-12-07T03:10:42.182Z,18.90
2018-12-07T03:11:42.152Z,19.50
2018-12-07T03:12:42.150Z,18.80
2018-12-07T03:13:42.138Z,20.30
2018-12-07T03:14:42.122Z,19.90
2018-12-07T03:15:42.145Z,19.80
2018-12-07T03:16:42.106Z,18.40
2018-12-07T03:17:42.087Z,20.20
2018-12-07T03:18:42.086Z,19.70
2018-12-07T03:19:42.060Z,21.60
2018-12-07T03:20:42.060Z,21.90
2018-12-07T03:21:42.066Z,19.50
2018-12-07T03:22:42.034Z,19.60
2018-12-07T03:23:42.023Z,20.50
2018-12-07T03:24:42.010Z,18.30
2018-12-07T03:25:41.990Z,20.90
2018-12-07T03:26:42.004Z,21.50
2018-12-07T03:27:41.993Z,19.50
2018-12-07T03:28:41.957Z,20.50
2018-12-07T03:29:41.957Z,21.00
2018-12-07T03:30:41.946Z,20.30
2018-12-07T03:31:41.947Z,21.60
2018-12-07T03:32:41.916Z,21.20
2018-12-07T03:33:41.945Z,20.40
2018-12-07T03:34:41.892Z,19.80
2018-12-07T03:35:41.890Z,19.80
2018-12-07T03:36:41.902Z,19.50
2018-12-07T03:37:41.874Z,23.20
2018-12-07T03:38:41.853Z,23.50
2018-12-07T03:39:41.854Z,23.70
2018-12-07T03:40:41.829Z,20.70
2018-12-07T03:41:41.847Z,24.60
2018-12-07T03:42:41.811Z,23.30
2018-12-07T03:43:41.804Z,21.20
2018-12-07T03:44:41.797Z,24.40
2018-12-07T03:45:41.769Z,25.70
2018-12-07T03:46:41.767Z,22.90
2018-12-07T03:47:41.776Z,22.20
2018-12-07T03:48:41.747Z,22.80
2018-12-07T03:49:41.729Z,23.20
2018-12-07T03:50:41.720Z,24.90
2018-12-07T03:51:41.737Z,22.30
2018-12-07T03:52:41.703Z,26.60
2018-12-07T03:53:41.677Z,24.40
2018-12-07T03:54:41.683Z,26.20
2018-12-07T03:55:41.662Z,23.50
2018-12-07T03:56:41.675Z,24.10
2018-12-07T03:57:41.681Z,27.30
2018-12-07T03:58:41.637Z,25.40
2018-12-07T03:59:41.617Z,27.40
2018-12-07T04:00:41.608Z,26.50
2018-12-07T04:01:41.618Z,27.20
2018-12-07T04:02:41.599Z,28.40
2018-12-07T04:03:41.918Z,31.00
2018-12-07T04:04:41.579Z,28.50
2018-12-07T04:05:41.569Z,27.70
2018-12-07T04:06:41.576Z,25.30
2018-12-07T04:07:41.547Z,30.80
2018-12-07T04:08:41.515Z,31.40
2018-12-07T04:09:41.502Z,31.10
2018-12-07T04:10:41.493Z,26.70
2018-12-07T04:11:41.487Z,30.70
2018-12-07T04:12:41.507Z,28.40
2018-12-07T04:13:41.467Z,28.40
2018-12-07T04:14:41.485Z,29.40
2018-12-07T04:15:41.444Z,31.20
2018-12-07T04:16:41.435Z,30.30
2018-12-07T04:17:41.454Z,29.40
2018-12-07T04:18:41.407Z,31.80
2018-12-07T04:19:41.400Z,34.00
2018-12-07T04:20:41.442Z,28.30
2018-12-07T04:21:41.391Z,30.50
2018-12-07T04:22:41.383Z,29.30
2018-12-07T04:23:41.387Z,31.80
2018-12-07T04:24:41.368Z,32.00
2018-12-07T04:25:41.332Z,29.00
2018-12-07T04:26:41.330Z,33.10
2018-12-07T04:27:41.321Z,30.90
2018-12-07T04:28:41.324Z,30.90
2018-12-07T04:29:41.285Z,28.60
2018-12-07T04:30:41.281Z,31.40
2018-12-07T04:31:41.266Z,31.60
2018-12-07T04:32:41.275Z,33.40
2018-12-07T04:33:41.247Z,29.10
2018-12-07T04:34:41.226Z,29.30
2018-12-07T04:35:41.230Z,32.00
2018-12-07T04:36:41.216Z,30.90
2018-12-07T04:37:41.224Z,31.50
2018-12-07T04:38:41.213Z,30.00
2018-12-07T04:39:41.204Z,32.10
2018-12-07T04:40:41.177Z,33.70
2018-12-07T04:41:41.163Z,28.80
2018-12-07T04:42:41.229Z,30.70
2018-12-07T04:43:41.146Z,32.70
2018-12-07T04:44:41.124Z,28.60
2018-12-07T04:45:41.115Z,31.40
2018-12-07T04:46:41.127Z,33.20
2018-12-07T04:47:41.115Z,29.00
2018-12-07T04:48:41.078Z,32.10
2018-12-07T04:49:41.061Z,31.30
2018-12-07T04:50:41.061Z,29.60
2018-12-07T04:51:41.057Z,33.30
2018-12-07T04:52:41.073Z,30.00
2018-12-07T04:53:41.030Z,31.90
2018-12-07T04:54:41.019Z,30.90
2018-12-07T04:55:41.022Z,32.60
2018-12-07T04:56:41.042Z,32.00
2018-12-07T04:57:41.003Z,31.30
2018-12-07T04:58:41.031Z,28.40
2018-12-07T04:59:40.955Z,29.80
2018-12-07T05:00:40.946Z,27.60
2018-12-07T05:01:40.937Z,32.20
2018-12-07T05:02:40.959Z,33.20
2018-12-07T05:03:40.980Z,33.50
2018-12-07T05:04:40.895Z,31.50
2018-12-07T05:05:40.889Z,29.40
2018-12-07T05:06:40.888Z,31.10
2018-12-07T05:07:40.871Z,31.20
2018-12-07T05:08:40.872Z,33.20
2018-12-07T05:09:40.852Z,30.60
2018-12-07T05:10:40.856Z,29.70
2018-12-07T05:11:40.831Z,30.80
2018-12-07T05:12:40.832Z,31.10
2018-12-07T05:13:40.830Z,29.90
2018-12-07T05:14:40.791Z,32.70
2018-12-07T05:15:40.801Z,31.50
2018-12-07T05:16:40.866Z,30.60
2018-12-07T05:17:40.757Z,29.00
2018-12-07T05:18:40.773Z,31.50
2018-12-07T05:19:40.743Z,33.60
2018-12-07T05:20:40.728Z,30.60
2018-12-07T05:21:40.716Z,32.60
2018-12-07T05:22:40.717Z,29.10
2018-12-07T05:23:40.706Z,27.60
2018-12-07T05:24:40.682Z,31.70
2018-12-07T05:25:40.676Z,29.20
2018-12-07T05:26:40.694Z,28.20
2018-12-07T05:27:40.646Z,30.30
2018-12-07T05:28:40.668Z,31.00
2018-12-07T05:29:40.626Z,30.60
2018-12-07T05:30:40.636Z,31.70
2018-12-07T05:31:40.609Z,33.20
2018-12-07T05:32:40.602Z,30.80
2018-12-07T05:33:40.616Z,32.10
2018-12-07T05:34:40.577Z,30.10
2018-12-07T05:35:40.569Z,28.30
2018-12-07T05:36:40.574Z,34.80
2018-12-07T05:37:40.538Z,32.20
2018-12-07T05:38:40.554Z,30.10
2018-12-07T05:39:40.514Z,30.80
2018-12-07T05:40:40.508Z,30.30
2018-12-07T05:41:40.503Z,27.80
2018-12-07T05:42:40.480Z,29.80
2018-12-07T05:43:40.509Z,28.30
2018-12-07T05:44:40.453Z,30.70
2018-12-07T05:45:40.451Z,31.70
2018-12-07T05:46:40.471Z,30.70
2018-12-07T05:47:40.422Z,30.50
2018-12-07T05:48:40.418Z,28.70
2018-12-07T05:49:40.424Z,31.90
2018-12-07T05:50:40.402Z,30.20
2018-12-07T05:51:40.380Z,30.10
2018-12-07T05:52:40.362Z,30.40
2018-12-07T05:53:40.352Z,28.60
2018-12-07T05:54:40.356Z,29.10
2018-12-07T05:55:40.339Z,28.70
2018-12-07T05:56:40.367Z,33.20
2018-12-07T05:57:40.336Z,30.10
2018-12-07T05:58:40.311Z,32.30
2018-12-07T05:59:40.314Z,30.80
2018-12-07T06:00:40.286Z,28.80
2018-12-07T06:01:40.458Z,27.30
2018-12-07T06:02:40.264Z,29.60
2018-12-07T06:03:40.272Z,30.30
2018-12-07T06:04:40.255Z,29.80
2018-12-07T06:05:40.229Z,28.10
2018-12-07T06:06:40.215Z,27.30
2018-12-07T06:07:40.215Z,26.40
2018-12-07T06:08:40.205Z,28.30
2018-12-07T06:09:40.308Z,29.10
2018-12-07T06:10:40.174Z,27.50
2018-12-07T06:11:40.218Z,27.70
2018-12-07T06:12:40.148Z,29.40
2018-12-07T06:13:40.147Z,27.50
2018-12-07T06:14:40.129Z,28.40
2018-12-07T06:15:40.116Z,24.00
2018-12-07T06:16:40.105Z,27.10
2018-12-07T06:17:40.095Z,24.00
2018-12-07T06:18:40.084Z,28.20
2018-12-07T06:19:40.081Z,26.30
2018-12-07T06:20:40.056Z,28.50
2018-12-07T06:21:40.050Z,24.80
2018-12-07T06:22:40.047Z,26.40
2018-12-07T06:23:40.033Z,23.40
2018-12-07T06:24:40.052Z,23.90
2018-12-07T06:25:40.039Z,24.60
2018-12-07T06:26:39.994Z,25.30
2018-12-07T06:27:39.984Z,27.00
2018-12-07T06:28:39.976Z,24.60
2018-12-07T06:29:39.970Z,24.80
2018-12-07T06:30:39.964Z,26.10
2018-12-07T06:31:39.933Z,23.70
2018-12-07T06:32:39.930Z,27.20
2018-12-07T06:33:40.635Z,23.20
2018-12-07T06:34:39.930Z,23.30
2018-12-07T06:35:39.891Z,22.70
2018-12-07T06:36:39.888Z,25.10
2018-12-07T06:37:39.872Z,25.30
2018-12-07T06:38:39.862Z,24.70
2018-12-07T06:39:39.843Z,22.60
2018-12-07T06:40:39.899Z,22.20
2018-12-07T06:41:39.832Z,23.20
2018-12-07T06:42:39.803Z,22.30
2018-12-07T06:43:39.809Z,26.10
2018-12-07T06:44:39.795Z,24.60
2018-12-07T06:45:39.801Z,24.60
2018-12-07T06:46:39.777Z,23.50
2018-12-07T06:47:39.763Z,24.30
2018-12-07T06:48:39.755Z,23.20
2018-12-07T06:49:39.732Z,25.40
2018-12-07T06:50:39.751Z,23.00
2018-12-07T06:51:39.707Z,24.70
2018-12-07T06:52:39.699Z,24.40
2018-12-07T06:53:39.737Z,27.10
2018-12-07T06:54:39.715Z,25.80
2018-12-07T06:55:39.679Z,25.20
2018-12-07T06:56:39.661Z,24.20
2018-12-07T06:57:39.659Z,26.00
2018-12-07T06:58:39.636Z,22.30
2018-12-07T06:59:39.625Z,24.90
2018-12-07T07:00:39.659Z,24.10
2018-12-07T07:01:39.609Z,24.90
2018-12-07T07:02:39.591Z,23.70
2018-12-07T07:03:39.590Z,24.50
2018-12-07T07:04:39.572Z,39.00
2018-12-07T07:05:39.581Z,36.30
2018-12-07T07:06:39.552Z,29.20
2018-12-07T07:07:39.567Z,28.70
2018-12-07T07:08:39.533Z,25.40
2018-12-07T07:09:39.516Z,19.20
2018-12-07T07:10:39.521Z,19.20
2018-12-07T07:11:39.540Z,18.50
2018-12-07T07:12:39.493Z,17.40
2018-12-07T07:13:39.468Z,17.70
2018-12-07T07:14:39.467Z,16.40
2018-12-07T07:15:39.460Z,15.00
2018-12-07T07:16:39.431Z,17.10
2018-12-07T07:17:39.430Z,15.80
2018-12-07T07:18:39.406Z,16.00
2018-12-07T07:19:39.431Z,15.00
2018-12-07T07:20:39.476Z,16.00
2018-12-07T07:21:39.403Z,17.00
2018-12-07T07:22:39.376Z,21.20
2018-12-07T07:23:39.380Z,18.00
2018-12-07T07:24:39.342Z,17.70
2018-12-07T07:25:39.368Z,20.40
2018-12-07T07:26:39.324Z,21.30
2018-12-07T07:27:39.318Z,18.30
2018-12-07T07:28:39.306Z,19.80
2018-12-07T07:29:39.278Z,19.40
2018-12-07T07:30:39.282Z,19.90
2018-12-07T07:31:43.450Z,19.60
2018-12-07T07:32:39.253Z,21.80
2018-12-07T07:33:39.250Z,19.70
2018-12-07T07:34:39.238Z,19.80
2018-12-07T07:35:39.220Z,19.50
2018-12-07T07:36:39.236Z,21.50
2018-12-07T07:37:39.198Z,18.20
2018-12-07T07:38:39.186Z,18.20
2018-12-07T07:39:39.187Z,20.50
2018-12-07T07:40:39.157Z,20.60
2018-12-07T07:41:39.182Z,19.50
2018-12-07T07:42:39.145Z,18.30
2018-12-07T07:43:39.136Z,20.10
2018-12-07T07:44:39.129Z,19.10
2018-12-07T07:45:39.118Z,19.70
2018-12-07T07:46:39.117Z,20.40
2018-12-07T07:47:39.089Z,19.90
2018-12-07T07:48:39.069Z,21.60
2018-12-07T07:49:39.080Z,17.70
2018-12-07T07:50:39.051Z,18.30
2018-12-07T07:51:39.053Z,21.00
2018-12-07T07:52:39.033Z,19.80
2018-12-07T07:53:39.023Z,19.70
2018-12-07T07:54:39.009Z,19.20
2018-12-07T07:55:38.997Z,20.30
2018-12-07T07:56:38.995Z,20.10
2018-12-07T07:57:38.970Z,19.80
2018-12-07T07:58:38.974Z,20.80
2018-12-07T07:59:38.963Z,21.90
2018-12-07T08:00:38.946Z,19.20
2018-12-07T08:01:38.951Z,21.40
2018-12-07T08:02:38.918Z,19.50
2018-12-07T08:03:38.909Z,20.10
2018-12-07T08:04:38.905Z,22.50
2018-12-07T08:05:38.895Z,18.30
2018-12-07T08:06:38.884Z,19.80
2018-12-07T08:07:38.860Z,19.20
2018-12-07T08:08:38.875Z,19.80
2018-12-07T08:09:38.841Z,18.90
2018-12-07T08:10:38.844Z,17.50
2018-12-07T08:11:38.836Z,18.40
2018-12-07T08:12:38.805Z,22.70
2018-12-07T08:13:38.812Z,18.40
2018-12-07T08:14:38.787Z,21.50
2018-12-07T08:15:38.772Z,19.50
2018-12-07T08:16:38.789Z,19.80
2018-12-07T08:17:38.765Z,18.70
2018-12-07T08:18:38.739Z,20.60
2018-12-07T08:19:38.727Z,19.60
2018-12-07T08:20:38.739Z,17.30
2018-12-07T08:21:38.731Z,21.70
2018-12-07T08:22:38.695Z,21.40
2018-12-07T08:23:38.697Z,19.00
2018-12-07T08:24:38.692Z,21.30
2018-12-07T08:25:38.660Z,18.70
2018-12-07T08:26:38.660Z,22.00
2018-12-07T08:27:38.644Z,18.40
2018-12-07T08:28:38.636Z,19.70
2018-12-07T08:29:38.682Z,20.20
2018-12-07T08:30:38.619Z,17.40
2018-12-07T08:31:38.617Z,18.20
2018-12-07T08:32:38.644Z,19.90
2018-12-07T08:33:38.576Z,21.30
2018-12-07T08:34:38.561Z,20.30
2018-12-07T08:35:38.553Z,18.90
2018-12-07T08:36:38.612Z,17.70
2018-12-07T08:37:38.528Z,17.10
2018-12-07T08:38:38.532Z,19.50
2018-12-07T08:39:38.504Z,17.60
2018-12-07T08:40:38.541Z,16.90
2018-12-07T08:41:38.508Z,17.40
2018-12-07T08:42:38.480Z,19.10
2018-12-07T08:43:38.466Z,18.40
2018-12-07T08:44:38.445Z,18.10
2018-12-07T08:45:38.444Z,18.50
2018-12-07T08:46:38.443Z,18.40
2018-12-07T08:47:38.416Z,19.10
2018-12-07T08:48:38.404Z,19.10
2018-12-07T08:49:38.403Z,18.90
2018-12-07T08:50:38.401Z,19.90
2018-12-07T08:51:38.400Z,17.30
2018-12-07T08:52:38.358Z,16.40
2018-12-07T08:53:38.358Z,17.20
2018-12-07T08:54:38.349Z,17.00
2018-12-07T08:55:38.326Z,19.20
2018-12-07T08:56:38.340Z,19.00
2018-12-07T08:57:38.313Z,16.90
2018-12-07T08:58:38.297Z,18.30
2018-12-07T08:59:38.298Z,16.60
2018-12-07T09:00:38.281Z,18.40
2018-12-07T09:01:38.304Z,18.30
2018-12-07T09:02:38.248Z,17.30
2018-12-07T09:03:38.250Z,17.80
2018-12-07T09:04:38.223Z,16.50
2018-12-07T09:05:38.265Z,18.10
2018-12-07T09:06:38.220Z,16.70
2018-12-07T09:07:38.204Z,15.40
2018-12-07T09:08:38.185Z,16.90
2018-12-07T09:09:38.175Z,17.00
2018-12-07T09:10:38.155Z,15.40
2018-12-07T09:11:38.194Z,19.10
2018-12-07T09:12:38.140Z,17.80
2018-12-07T09:13:38.122Z,17.90
2018-12-07T09:14:38.123Z,17.10
2018-12-07T09:15:38.126Z,17.30
2018-12-07T09:16:38.103Z,19.00
2018-12-07T09:17:38.105Z,16.90
2018-12-07T09:18:38.087Z,16.10
2018-12-07T09:19:38.100Z,16.50
2018-12-07T09:20:38.060Z,17.00
2018-12-07T09:21:38.047Z,15.80
2018-12-07T09:22:38.041Z,18.10
2018-12-07T09:23:38.023Z,16.40
2018-12-07T09:24:38.011Z,16.00
2018-12-07T09:25:38.033Z,17.50
2018-12-07T09:26:37.983Z,17.70
2018-12-07T09:27:37.998Z,15.60
2018-12-07T09:28:37.959Z,15.40
2018-12-07T09:29:37.949Z,16.40
2018-12-07T09:30:37.946Z,15.70
2018-12-07T09:31:37.928Z,16.40
2018-12-07T09:32:37.946Z,16.30
2018-12-07T09:33:37.915Z,17.30
2018-12-07T09:34:37.901Z,16.50
2018-12-07T09:35:37.888Z,18.60
2018-12-07T09:36:37.884Z,15.10
2018-12-07T09:37:37.882Z,15.20
2018-12-07T09:38:37.866Z,14.90
2018-12-07T09:39:37.836Z,15.90
2018-12-07T09:40:37.834Z,16.90
2018-12-07T09:41:37.822Z,13.90
2018-12-07T09:42:38.256Z,16.00
2018-12-07T09:43:37.790Z,15.90
2018-12-07T09:44:37.793Z,16.90
2018-12-07T09:45:37.777Z,14.30
2018-12-07T09:46:37.768Z,12.80
2018-12-07T09:47:37.784Z,14.20
2018-12-07T09:48:37.733Z,14.20
2018-12-07T09:49:37.749Z,14.90
2018-12-07T09:50:37.720Z,15.10
2018-12-07T09:51:37.710Z,12.20
2018-12-07T09:52:37.711Z,12.00
2018-12-07T09:53:37.690Z,12.20
2018-12-07T09:54:37.696Z,11.70
2018-12-07T09:55:37.664Z,12.00
2018-12-07T09:56:37.665Z,13.20
2018-12-07T09:57:37.656Z,11.30
2018-12-07T09:58:37.627Z,10.80
2018-12-07T09:59:37.629Z,13.50
2018-12-07T10:00:37.609Z,12.00
2018-12-07T10:01:37.592Z,13.10
2018-12-07T10:02:37.643Z,8.70
2018-12-07T10:03:37.568Z,11.20
2018-12-07T10:04:37.564Z,10.70
2018-12-07T10:05:37.557Z,12.00
2018-12-07T10:06:37.548Z,9.70
2018-12-07T10:07:37.537Z,12.30
2018-12-07T10:08:37.538Z,9.40
2018-12-07T10:09:37.524Z,12.00
2018-12-07T10:10:37.499Z,11.30
2018-12-07T10:11:37.484Z,10.60
2018-12-07T10:12:37.471Z,8.20
2018-12-07T10:13:37.494Z,8.30
2018-12-07T10:14:37.453Z,10.40
2018-12-07T10:15:37.459Z,8.70
2018-12-07T10:16:37.429Z,9.20
2018-12-07T10:17:37.422Z,8.80
2018-12-07T10:18:37.428Z,9.10
2018-12-07T10:19:37.401Z,9.10
2018-12-07T10:20:37.388Z,9.70
2018-12-07T10:21:37.373Z,9.60
2018-12-07T10:22:37.963Z,8.70
2018-12-07T10:23:37.385Z,10.20
2018-12-07T10:24:37.346Z,11.30
2018-12-07T10:25:37.332Z,8.80
2018-12-07T10:26:37.319Z,7.70
2018-12-07T10:27:37.311Z,9.30
2018-12-07T10:28:37.356Z,9.70
2018-12-07T10:29:37.291Z,7.60
2018-12-07T10:30:37.277Z,8.70
2018-12-07T10:31:37.271Z,8.60
2018-12-07T10:32:37.250Z,8.50
2018-12-07T10:33:37.256Z,7.30
2018-12-07T10:34:37.262Z,8.90
2018-12-07T10:35:37.217Z,9.30
2018-12-07T10:36:37.208Z,9.40
2018-12-07T10:37:37.199Z,8.10
2018-12-07T10:38:37.199Z,10.70
2018-12-07T10:39:37.175Z,18.60
2018-12-07T10:40:37.165Z,15.60
2018-12-07T10:41:37.151Z,10.10
2018-12-07T10:42:37.135Z,10.80
2018-12-07T10:43:37.157Z,8.70
2018-12-07T10:44:37.228Z,8.60
2018-12-07T10:45:37.102Z,8.40
2018-12-07T10:46:37.104Z,10.10
2018-12-07T10:47:37.096Z,9.10
2018-12-07T10:48:37.085Z,8.50
2018-12-07T10:49:37.067Z,7.50
2018-12-07T10:50:37.080Z,7.40
2018-12-07T10:51:37.042Z,7.40
2018-12-07T10:52:37.033Z,7.50
2018-12-07T10:53:37.034Z,6.90
2018-12-07T10:54:37.000Z,6.00
2018-12-07T10:55:37.020Z,5.40
2018-12-07T10:56:36.985Z,7.40
2018-12-07T10:57:36.978Z,7.40
2018-12-07T10:58:36.999Z,8.00
2018-12-07T10:59:36.973Z,8.30
2018-12-07T11:00:36.945Z,7.10
2018-12-07T11:01:36.931Z,5.40
2018-12-07T11:02:38.169Z,5.50
2018-12-07T11:03:36.915Z,6.50
2018-12-07T11:04:36.962Z,7.10
2018-12-07T11:05:36.888Z,7.10
2018-12-07T11:06:36.880Z,5.00
2018-12-07T11:07:36.890Z,6.70
2018-12-07T11:08:36.853Z,8.80
2018-12-07T11:09:36.861Z,7.00
2018-12-07T11:10:36.828Z,5.40
2018-12-07T11:11:36.807Z,7.60
2018-12-07T11:12:36.805Z,5.80
2018-12-07T11:13:36.802Z,8.40
2018-12-07T11:14:36.798Z,4.80
2018-12-07T11:15:36.778Z,5.70
2018-12-07T11:16:36.757Z,6.80
2018-12-07T11:17:36.750Z,3.90
2018-12-07T11:18:36.751Z,5.20
2018-12-07T11:19:36.756Z,29.40
2018-12-07T11:20:36.713Z,10.10
2018-12-07T11:21:36.714Z,10.80
2018-12-07T11:22:36.698Z,6.40
2018-12-07T11:23:36.688Z,5.00
2018-12-07T11:24:36.708Z,5.00
2018-12-07T11:25:36.666Z,3.90
2018-12-07T11:26:36.653Z,3.90
2018-12-07T11:27:36.650Z,4.70
2018-12-07T11:28:36.630Z,3.80
2018-12-07T11:29:36.638Z,5.40
2018-12-07T11:30:36.652Z,4.60
2018-12-07T11:31:36.610Z,3.70
2018-12-07T11:32:36.592Z,4.10
2018-12-07T11:33:36.570Z,3.90
2018-12-07T11:34:36.576Z,4.10
2018-12-07T11:35:36.551Z,3.70
2018-12-07T11:36:36.556Z,6.50
2018-12-07T11:37:36.528Z,4.20
2018-12-07T11:38:36.523Z,3.60
2018-12-07T11:39:36.546Z,3.80
2018-12-07T11:40:36.503Z,3.60
2018-12-07T11:41:36.488Z,6.60
2018-12-07T11:42:36.478Z,4.60
2018-12-07T11:43:36.478Z,5.30
2018-12-07T11:44:36.693Z,4.40
2018-12-07T11:45:36.442Z,4.70
2018-12-07T11:46:36.419Z,3.80
2018-12-07T11:47:36.422Z,3.70
2018-12-07T11:48:36.406Z,6.30
2018-12-07T11:49:36.435Z,3.70
2018-12-07T11:50:36.388Z,3.40
2018-12-07T11:51:36.379Z,5.00
2018-12-07T11:52:36.391Z,4.40
2018-12-07T11:53:36.357Z,3.20
2018-12-07T11:54:36.369Z,4.90
2018-12-07T11:55:36.368Z,4.30
2018-12-07T11:56:36.330Z,5.10
2018-12-07T11:57:36.316Z,4.50
2018-12-07T11:58:36.303Z,3.40
2018-12-07T11:59:36.295Z,3.30
2018-12-07T12:00:36.314Z,4.10
2018-12-07T12:01:36.272Z,5.80
2018-12-07T12:02:36.258Z,4.50
2018-12-07T12:03:36.235Z,6.60
2018-12-07T12:04:36.232Z,3.40
2018-12-07T12:05:36.231Z,4.10
2018-12-07T12:06:36.210Z,3.80
2018-12-07T12:07:36.226Z,3.50
2018-12-07T12:08:36.189Z,3.90
2018-12-07T12:09:36.178Z,3.60
2018-12-07T12:10:36.177Z,4.10
2018-12-07T12:11:36.170Z,3.30
2018-12-07T12:12:36.140Z,3.90
2018-12-07T12:13:36.137Z,3.70
2018-12-07T12:14:36.123Z,3.00
2018-12-07T12:15:36.140Z,4.30
2018-12-07T12:16:36.103Z,3.80
2018-12-07T12:17:36.097Z,4.80
2018-12-07T12:18:36.085Z,4.10
2018-12-07T12:19:36.067Z,4.00
2018-12-07T12:20:36.082Z,4.50
2018-12-07T12:21:36.707Z,3.20
2018-12-07T12:22:36.035Z,4.30
2018-12-07T12:23:36.017Z,3.70
2018-12-07T12:24:36.013Z,4.40
2018-12-07T12:25:36.014Z,3.10
2018-12-07T12:26:35.986Z,3.30
2018-12-07T12:27:35.976Z,5.00
2018-12-07T12:28:35.977Z,3.90
2018-12-07T12:29:35.947Z,3.70
2018-12-07T12:30:35.965Z,6.70
2018-12-07T12:31:35.932Z,4.80
2018-12-07T12:33:46.551Z,3.60
2018-12-07T12:34:46.548Z,3.10
2018-12-07T13:10:58.969Z,3.60
2018-12-07T13:11:44.091Z,4.20
2018-12-07T13:12:44.100Z,3.40
2018-12-07T13:13:44.042Z,3.70
2018-12-07T13:14:44.055Z,3.80
2018-12-07T13:15:44.016Z,3.30
2018-12-07T13:16:44.034Z,4.10
2018-12-07T13:17:43.994Z,3.60
2018-12-07T13:18:43.985Z,5.70
2018-12-07T13:19:43.979Z,4.80
2018-12-07T13:20:43.971Z,4.50
2018-12-07T13:21:43.994Z,5.40
2018-12-07T13:22:43.946Z,3.30
2018-12-07T13:23:43.950Z,4.60
2018-12-07T13:24:43.922Z,6.30
2018-12-07T13:25:43.913Z,5.10
2018-12-07T13:26:43.890Z,3.50
2018-12-07T13:27:43.916Z,3.70
2018-12-07T13:28:43.872Z,4.20
2018-12-07T13:29:43.861Z,5.50
2018-12-07T13:30:43.852Z,3.70
2018-12-07T13:31:43.848Z,4.10
2018-12-07T13:32:43.850Z,5.30
2018-12-07T13:33:43.826Z,4.80